createdAt,value
2016-09-15T06:01:50.342Z,4764
2016-09-15T06:02:37.529Z,4824
2016-09-15T06:03:35.807Z,4904
2016-09-15T06:04:36.582Z,4984
2016-09-15T06:05:36.006Z,5068
2016-09-15T06:06:36.281Z,5144
2016-09-15T06:07:35.783Z,5216
2016-09-15T06:08:36.602Z,5284
2016-09-15T06:09:35.735Z,5336
2016-09-15T06:10:35.676Z,5384
2016-09-15T06:11:35.692Z,5432
2016-09-15T06:12:36.324Z,5472
2016-09-15T06:13:36.515Z,5520
2016-09-15T06:14:36.402Z,5568
2016-09-15T06:15:37.268Z,5620
2016-09-15T06:16:35.904Z,5680
2016-09-15T06:17:35.570Z,5740
2016-09-15T06:18:36.184Z,5812
2016-09-15T06:19:37.243Z,5876
2016-09-15T06:20:36.418Z,5936
2016-09-15T06:21:36.313Z,5968
2016-09-15T06:22:36.825Z,6004
2016-09-15T06:23:37.151Z,6028
2016-09-15T06:24:36.273Z,6056
2016-09-15T06:25:37.607Z,6092
2016-09-15T06:26:37.740Z,6152
2016-09-15T06:27:36.706Z,6212
2016-09-15T06:28:39.047Z,6284
2016-09-15T06:29:36.405Z,6344
2016-09-15T06:30:39.056Z,6400
2016-09-15T06:31:36.251Z,6444
2016-09-15T06:32:37.772Z,6488
2016-09-15T06:33:36.981Z,6520
2016-09-15T06:34:36.219Z,6572
2016-09-15T06:35:36.142Z,6628
2016-09-15T06:36:36.103Z,6696
2016-09-15T06:37:36.364Z,6772
2016-09-15T06:38:36.348Z,6848
2016-09-15T06:39:37.140Z,6924
2016-09-15T06:40:37.457Z,7004
2016-09-15T06:41:37.313Z,7084
2016-09-15T06:42:36.696Z,7180
2016-09-15T06:43:37.545Z,7280
2016-09-15T06:44:38.216Z,7392
2016-09-15T06:45:37.999Z,7492
2016-09-15T06:46:38.124Z,7644
2016-09-15T06:47:38.263Z,7772
2016-09-15T06:48:37.834Z,7908
2016-09-15T06:49:38.067Z,8016
2016-09-15T06:50:38.650Z,8132
2016-09-15T06:51:37.589Z,8292
2016-09-15T06:52:37.481Z,8496
2016-09-15T06:53:37.664Z,8764
2016-09-15T06:54:36.826Z,8956
2016-09-15T06:55:37.960Z,9120
2016-09-15T06:56:37.499Z,9200
2016-09-15T06:57:36.846Z,9264
2016-09-15T06:58:37.158Z,9424
2016-09-15T06:59:37.602Z,9460
2016-09-15T07:00:38.955Z,9548
2016-09-15T07:01:37.420Z,9656
2016-09-15T07:02:38.244Z,9764
2016-09-15T07:03:38.414Z,9968
2016-09-15T07:04:37.476Z,10128
2016-09-15T07:05:37.092Z,10196
2016-09-15T07:06:38.049Z,10156
2016-09-15T07:07:37.457Z,10136
2016-09-15T07:08:36.683Z,10128
2016-09-15T07:09:37.323Z,10184
2016-09-15T07:10:38.547Z,10152
2016-09-15T07:11:37.545Z,10036
2016-09-15T07:12:38.565Z,10000
2016-09-15T07:13:39.047Z,9964
2016-09-15T07:14:40.550Z,9968
2016-09-15T07:15:37.031Z,9996
2016-09-15T07:16:38.182Z,10044
2016-09-15T07:17:37.931Z,10088
2016-09-15T07:18:38.590Z,10148
2016-09-15T07:19:38.803Z,10212
2016-09-15T07:20:37.963Z,10284
2016-09-15T07:21:38.406Z,10360
2016-09-15T07:22:39.126Z,10472
2016-09-15T07:23:39.251Z,10584
2016-09-15T07:24:38.661Z,10684
2016-09-15T07:25:38.101Z,10828
2016-09-15T07:26:39.126Z,11040
2016-09-15T07:27:39.021Z,11640
2016-09-15T07:28:38.821Z,15624
2016-09-15T07:29:37.480Z,22400
2016-09-15T07:30:38.502Z,24288
2016-09-15T07:31:38.087Z,23072
2016-09-15T07:32:38.245Z,22976
2016-09-15T07:33:37.843Z,24352
2016-09-15T07:34:38.353Z,23552
2016-09-15T07:35:38.846Z,19968
2016-09-15T07:36:38.056Z,14592
2016-09-15T07:37:38.899Z,12160
2016-09-15T07:38:39.608Z,12000
2016-09-15T07:39:39.376Z,12020
2016-09-15T07:40:39.642Z,12076
2016-09-15T07:41:37.973Z,12184
2016-09-15T07:42:38.122Z,12432
2016-09-15T07:43:39.730Z,13252
2016-09-15T07:44:38.334Z,17920
2016-09-15T07:45:38.387Z,24192
2016-09-15T07:46:38.878Z,29984
2016-09-15T07:47:38.270Z,32352
2016-09-15T07:48:38.740Z,32704
2016-09-15T07:49:38.424Z,32256
2016-09-15T07:50:39.032Z,31168
2016-09-15T07:51:38.671Z,29760
2016-09-15T07:52:39.083Z,31680
2016-09-15T07:53:40.804Z,31392
2016-09-15T07:54:39.919Z,30624
2016-09-15T07:55:39.400Z,30656
2016-09-15T07:56:38.256Z,30112
2016-09-15T07:57:39.438Z,30688
2016-09-15T07:58:38.573Z,28384
2016-09-15T07:59:38.657Z,27968
2016-09-15T08:00:39.587Z,29184
2016-09-15T08:01:39.427Z,30784
2016-09-15T08:02:39.093Z,31808
2016-09-15T08:03:38.894Z,32224
2016-09-15T08:04:39.550Z,31808
2016-09-15T08:05:40.350Z,32096
2016-09-15T08:46:03.963Z,39392
2016-09-15T08:47:03.182Z,39616
2016-09-15T08:48:01.968Z,37248
2016-09-15T08:49:03.681Z,36736
2016-09-15T08:50:01.976Z,36928
2016-09-15T08:51:01.878Z,38208
2016-09-15T08:52:02.639Z,41376
2016-09-15T08:53:03.546Z,44960
2016-09-15T08:54:03.435Z,43872
2016-09-15T08:55:02.657Z,42272
2016-09-15T08:56:02.358Z,41984
2016-09-15T08:57:03.348Z,41504
2016-09-15T08:58:04.220Z,45408
2016-09-15T08:59:03.410Z,44768
2016-09-15T09:00:03.319Z,43072
2016-09-15T09:01:03.089Z,41408
2016-09-15T09:02:02.932Z,41568
2016-09-15T09:03:02.321Z,43424
2016-09-15T09:04:01.942Z,41472
2016-09-15T09:05:04.229Z,44480
2016-09-15T09:06:03.105Z,45504
2016-09-15T09:07:03.706Z,47008
2016-09-15T09:08:03.815Z,48672
2016-09-15T09:09:04.007Z,47712
2016-09-15T09:10:03.815Z,47040
2016-09-15T09:11:02.715Z,49696
2016-09-15T09:12:03.554Z,49344
2016-09-15T09:13:04.599Z,48448
2016-09-15T09:14:04.695Z,47552
2016-09-15T09:15:04.413Z,42496
2016-09-15T09:16:02.928Z,40064
2016-09-15T09:17:03.515Z,39648
2016-09-15T09:18:03.768Z,41024
2016-09-15T09:19:03.412Z,39872
2016-09-15T09:20:05.404Z,40416
2016-09-15T09:21:04.552Z,41120
2016-09-15T09:22:04.455Z,42400
2016-09-15T09:23:04.304Z,47232
2016-09-15T09:24:04.392Z,48224
2016-09-15T09:25:04.005Z,35872
2016-09-15T09:26:04.334Z,36960
2016-09-15T09:27:04.067Z,46688
2016-09-15T09:28:04.818Z,46528
2016-09-15T09:29:03.758Z,38880
2016-09-15T09:30:04.379Z,47360
2016-09-15T09:31:04.724Z,45536
2016-09-15T09:32:03.005Z,45248
2016-09-15T09:33:03.631Z,37824
2016-09-15T09:34:05.061Z,43200
2016-09-15T09:35:04.366Z,51040
2016-09-15T09:36:04.387Z,47040
2016-09-15T09:37:04.409Z,48736
2016-09-15T09:38:02.912Z,45248
2016-09-15T09:39:05.567Z,45696
2016-09-15T09:40:03.137Z,42624
2016-09-15T09:41:05.516Z,39296
2016-09-15T09:42:03.609Z,45056
2016-09-15T09:43:03.804Z,49504
2016-09-15T09:44:04.503Z,44288
2016-09-15T09:45:05.048Z,41024
2016-09-15T09:46:04.683Z,42656
2016-09-15T09:47:04.460Z,46240
2016-09-15T09:48:05.637Z,41440
2016-09-15T09:49:06.002Z,40128
2016-09-15T09:50:04.560Z,38784
2016-09-15T09:51:05.635Z,23232
2016-09-15T09:52:07.227Z,18144
2016-09-15T09:53:05.833Z,17148
2016-09-15T09:54:04.011Z,16844
2016-09-15T09:55:04.550Z,16600
2016-09-15T09:56:03.786Z,16448
2016-09-15T09:57:05.456Z,16268
2016-09-15T09:58:06.150Z,16188
2016-09-15T09:59:04.710Z,16040
2016-09-15T10:00:06.312Z,15952
2016-09-15T10:01:05.149Z,15876
2016-09-15T10:02:03.790Z,15808
2016-09-15T10:03:04.354Z,15732
2016-09-15T10:04:05.292Z,15760
2016-09-15T10:05:04.541Z,15712
2016-09-15T10:06:05.179Z,15676
2016-09-15T10:07:05.528Z,15624
2016-09-15T10:08:07.231Z,15588
2016-09-15T10:09:04.431Z,15544
2016-09-15T10:10:07.319Z,15540
2016-09-15T10:11:04.552Z,15544
2016-09-15T10:12:04.547Z,15476
2016-09-15T10:13:05.564Z,15448
2016-09-15T10:14:06.736Z,15488
2016-09-15T10:15:05.363Z,15480
2016-09-15T10:16:05.639Z,15472
2016-09-15T10:17:05.238Z,15456
2016-09-15T10:18:06.537Z,15420
2016-09-15T10:19:05.344Z,15368
2016-09-15T10:20:05.993Z,15340
2016-09-15T10:21:05.661Z,15320
2016-09-15T10:22:05.583Z,15272
2016-09-15T10:23:06.084Z,15316
2016-09-15T10:24:04.751Z,15324
2016-09-15T10:25:07.037Z,15276
2016-09-15T10:26:05.803Z,15244
2016-09-15T10:27:08.222Z,15268
2016-09-15T10:28:04.448Z,15240
2016-09-15T10:29:05.483Z,15224
2016-09-15T10:30:07.402Z,15192
2016-09-15T10:31:06.221Z,15200
2016-09-15T10:32:05.885Z,15136
2016-09-15T10:33:05.912Z,15104
2016-09-15T10:34:06.165Z,15100
2016-09-15T10:35:08.635Z,15072
2016-09-15T10:36:06.945Z,15060
2016-09-15T10:37:09.128Z,15080
2016-09-15T10:38:06.865Z,15056
2016-09-15T10:39:06.689Z,15020
2016-09-15T10:40:07.245Z,15152
2016-09-15T10:41:05.601Z,15112
2016-09-15T10:42:05.815Z,15116
2016-09-15T10:43:06.019Z,15104
2016-09-15T10:44:07.979Z,15140
2016-09-15T10:45:05.412Z,15172
2016-09-15T10:46:06.572Z,15156
2016-09-15T10:47:05.665Z,15196
2016-09-15T10:48:08.065Z,15296
2016-09-15T10:49:06.918Z,15292
2016-09-15T10:50:08.470Z,15348
2016-09-15T10:51:06.448Z,15408
2016-09-15T10:52:06.430Z,15508
2016-09-15T10:53:07.624Z,15528
2016-09-15T10:54:08.549Z,15660
2016-09-15T10:55:07.635Z,15796
2016-09-15T10:56:07.868Z,15896
2016-09-15T10:57:07.617Z,16068
2016-09-15T10:58:07.239Z,16156
2016-09-15T10:59:06.302Z,16388
2016-09-15T11:00:06.440Z,16528
2016-09-15T11:01:06.864Z,16836
2016-09-15T11:02:06.970Z,17284
2016-09-15T11:03:06.734Z,17824
2016-09-15T11:04:05.916Z,19200
2016-09-15T11:05:06.140Z,23168
2016-09-15T11:06:06.352Z,28768
2016-09-15T11:07:06.991Z,30560
2016-09-15T11:08:06.199Z,30400
2016-09-15T11:09:06.762Z,33920
2016-09-15T11:10:09.305Z,36608
2016-09-15T11:11:07.341Z,35072
2016-09-15T11:12:06.296Z,35040
2016-09-15T11:13:07.539Z,38208
2016-09-15T11:14:06.825Z,39584
2016-09-15T11:15:09.011Z,39616
2016-09-15T11:16:06.917Z,39872
2016-09-15T11:17:06.652Z,36512
2016-09-15T11:18:07.329Z,35296
2016-09-15T11:19:07.775Z,35040
2016-09-15T11:20:06.799Z,34048
2016-09-15T11:21:07.493Z,35264
2016-09-15T11:22:05.727Z,35136
2016-09-15T11:23:08.645Z,35456
2016-09-15T11:24:07.098Z,35520
2016-09-15T11:25:11.491Z,36128
2016-09-15T11:26:09.447Z,35712
2016-09-15T11:27:07.668Z,34880
2016-09-15T11:28:06.691Z,33280
2016-09-15T11:29:07.580Z,32768
2016-09-15T11:30:07.670Z,35104
2016-09-15T11:31:07.752Z,34592
2016-09-15T11:32:06.796Z,33184
2016-09-15T11:33:08.307Z,30048
2016-09-15T11:34:08.023Z,28768
2016-09-15T11:35:07.618Z,28256
2016-09-15T11:36:07.421Z,25984
2016-09-15T11:37:06.656Z,25056
2016-09-15T11:38:09.885Z,26272
2016-09-15T11:39:08.069Z,26720
2016-09-15T11:40:08.605Z,23552
2016-09-15T11:41:07.861Z,24384
2016-09-15T11:42:11.115Z,22816
2016-09-15T11:43:08.504Z,23200
2016-09-15T11:44:06.965Z,22080
2016-09-15T11:45:08.595Z,21056
2016-09-15T11:46:08.561Z,20256
2016-09-15T11:47:09.383Z,19168
2016-09-15T11:48:08.849Z,18624
2016-09-15T11:49:07.852Z,18560
2016-09-15T11:50:09.658Z,17888
2016-09-15T11:51:08.321Z,17632
2016-09-15T11:52:07.612Z,17536
2016-09-15T11:53:09.359Z,17248
2016-09-15T11:54:07.823Z,17160
2016-09-15T11:55:09.257Z,17048
2016-09-15T11:56:09.351Z,17036
2016-09-15T11:57:08.092Z,17132
2016-09-15T11:58:08.679Z,17128
2016-09-15T11:59:08.715Z,17160
2016-09-15T12:00:09.445Z,17052
2016-09-15T12:01:09.873Z,17136
2016-09-15T12:02:09.129Z,17472
2016-09-15T12:03:08.941Z,17440
2016-09-15T12:04:09.574Z,16984
2016-09-15T12:05:10.186Z,17136
2016-09-15T12:06:09.109Z,17536
2016-09-15T12:07:08.939Z,17504
2016-09-15T12:08:09.695Z,16728
2016-09-15T12:09:07.126Z,16688
2016-09-15T12:10:08.641Z,16792
2016-09-15T12:11:09.432Z,17348
2016-09-15T12:12:11.477Z,17440
2016-09-15T12:13:09.598Z,16676
2016-09-15T12:14:11.646Z,16476
2016-09-15T12:15:10.626Z,16432
2016-09-15T12:16:09.722Z,16332
2016-09-15T12:17:10.241Z,16376
2016-09-15T12:18:08.445Z,16364
2016-09-15T12:19:09.287Z,16360
2016-09-15T12:20:10.309Z,16252
2016-09-15T12:21:08.700Z,16292
2016-09-15T12:22:09.725Z,16248
2016-09-15T12:23:08.425Z,16272
2016-09-15T12:24:09.578Z,16292
2016-09-15T12:25:09.004Z,16224
2016-09-15T12:26:08.648Z,16256
2016-09-15T12:27:10.887Z,16212
2016-09-15T12:28:09.400Z,16188
2016-09-15T12:29:08.603Z,16088
2016-09-15T12:30:09.580Z,16244
2016-09-15T12:31:11.312Z,16140
2016-09-15T12:32:10.753Z,15940
2016-09-15T12:33:08.966Z,15952
2016-09-15T12:34:09.394Z,16068
2016-09-15T12:35:09.366Z,16176
2016-09-15T12:36:11.400Z,16208
2016-09-15T12:37:10.398Z,16056
2016-09-15T12:38:08.507Z,15924
2016-09-15T12:39:08.666Z,15952
2016-09-15T12:40:08.352Z,15880
2016-09-15T12:41:09.864Z,15820
2016-09-15T12:42:10.834Z,15848
2016-09-15T12:43:09.883Z,15692
2016-09-15T12:44:09.097Z,15576
2016-09-15T12:45:09.942Z,15516
2016-09-15T12:46:09.846Z,15492
2016-09-15T12:47:08.882Z,15388
2016-09-15T12:48:11.076Z,15440
2016-09-15T12:49:10.810Z,15408
2016-09-15T12:50:10.939Z,15352
2016-09-15T12:51:11.973Z,15300
2016-09-15T12:52:09.954Z,15320
2016-09-15T12:53:10.357Z,15304
2016-09-15T12:54:11.635Z,15200
2016-09-15T12:55:10.589Z,15268
2016-09-15T12:56:10.977Z,15188
2016-09-15T12:57:10.717Z,15084
2016-09-15T12:58:10.165Z,15124
2016-09-15T12:59:11.088Z,14936
2016-09-15T13:00:10.575Z,14836
2016-09-15T13:01:12.086Z,14800
2016-09-15T13:02:11.315Z,14600
2016-09-15T13:03:11.377Z,14648
2016-09-15T13:04:11.526Z,14572
2016-09-15T13:05:10.977Z,14484
2016-09-15T13:06:11.816Z,14320
2016-09-15T13:07:09.747Z,14352
2016-09-15T13:08:11.808Z,14404
2016-09-15T13:09:12.170Z,14348
2016-09-15T13:10:11.898Z,14192
2016-09-15T13:11:10.922Z,14208
2016-09-15T13:12:10.576Z,14196
2016-09-15T13:13:13.605Z,14112
2016-09-15T13:14:11.923Z,14124
2016-09-15T13:15:11.526Z,14076
2016-09-15T13:16:11.661Z,14048
2016-09-15T13:17:11.350Z,13944
2016-09-15T13:18:12.163Z,13896
2016-09-15T13:19:11.113Z,13800
2016-09-15T13:20:11.660Z,13800
2016-09-15T13:21:11.272Z,13700
2016-09-15T13:22:11.476Z,13640
2016-09-15T13:23:11.535Z,13572
2016-09-15T13:24:12.645Z,13576
2016-09-15T13:25:12.090Z,13524
2016-09-15T13:26:11.214Z,13444
2016-09-15T13:27:10.986Z,13408
2016-09-15T13:28:11.837Z,13368
2016-09-15T13:29:11.180Z,13372
2016-09-15T13:30:11.331Z,13352
2016-09-15T13:31:12.152Z,13348
2016-09-15T13:32:12.898Z,13336
2016-09-15T13:33:11.720Z,13308
2016-09-15T13:34:12.279Z,13188
2016-09-15T13:35:11.016Z,13144
2016-09-15T13:36:11.247Z,13156
2016-09-15T13:37:12.559Z,13148
2016-09-15T13:38:11.861Z,13116
2016-09-15T13:39:11.213Z,13064
2016-09-15T13:40:11.977Z,12964
2016-09-15T13:41:14.123Z,12948
2016-09-15T13:42:12.785Z,12928
2016-09-15T13:43:11.985Z,12884
2016-09-15T13:44:12.160Z,12812
2016-09-15T13:45:11.460Z,12732
2016-09-15T13:46:11.997Z,12664
2016-09-15T13:47:11.220Z,12676
2016-09-15T13:48:13.014Z,12680
2016-09-15T13:49:11.508Z,12692
2016-09-15T13:50:11.615Z,12628
2016-09-15T13:51:14.822Z,12588
2016-09-15T13:52:12.208Z,12372
2016-09-15T13:53:14.669Z,12372
2016-09-15T13:54:13.148Z,12364
2016-09-15T13:55:13.170Z,12396
2016-09-15T13:56:12.025Z,12356
2016-09-15T13:57:12.137Z,12388
2016-09-15T13:58:12.209Z,12380
2016-09-15T13:59:12.508Z,12340
2016-09-15T14:00:13.104Z,12268
2016-09-15T14:01:14.501Z,12128
2016-09-15T14:02:12.285Z,11916
2016-09-15T14:03:13.653Z,11796
2016-09-15T14:04:12.260Z,11684
2016-09-15T14:05:13.673Z,11548
2016-09-15T14:06:12.909Z,11436
2016-09-15T14:07:12.783Z,11320
2016-09-15T14:08:13.552Z,11116
2016-09-15T14:09:15.523Z,11032
2016-09-15T14:10:14.403Z,10900
2016-09-15T14:11:13.204Z,10756
2016-09-15T14:12:12.509Z,10732
2016-09-15T14:13:13.143Z,10672
2016-09-15T14:14:12.945Z,10612
2016-09-15T14:15:13.056Z,10556
2016-09-15T14:16:14.077Z,10524
2016-09-15T14:17:13.102Z,10436
2016-09-15T14:18:12.386Z,10312
2016-09-15T14:19:12.980Z,10264
2016-09-15T14:20:12.995Z,10064
2016-09-15T14:21:13.276Z,10272
2016-09-15T14:22:12.379Z,10164
2016-09-15T14:23:13.829Z,10084
2016-09-15T14:24:15.743Z,9980
2016-09-15T14:25:14.355Z,9976
2016-09-15T14:26:13.709Z,9916
2016-09-15T14:27:14.878Z,9864
2016-09-15T14:28:14.501Z,9884
2016-09-15T14:29:14.407Z,9820
2016-09-15T14:30:13.940Z,9744
2016-09-15T14:31:13.518Z,9724
2016-09-15T14:32:14.714Z,9688
2016-09-15T14:33:13.289Z,9648
2016-09-15T14:34:14.405Z,9616
2016-09-15T14:35:13.498Z,9524
2016-09-15T14:36:14.520Z,9524
2016-09-15T14:37:15.670Z,9528
2016-09-15T14:38:14.901Z,9532
2016-09-15T14:39:12.377Z,9544
2016-09-15T14:40:14.301Z,9516
2016-09-15T14:41:14.674Z,9524
2016-09-15T14:42:14.471Z,9444
2016-09-15T14:43:13.884Z,9368
2016-09-15T14:44:15.266Z,9268
2016-09-15T14:45:14.091Z,9216
2016-09-15T14:46:13.896Z,9092
2016-09-15T14:47:15.190Z,9020
2016-09-15T14:48:14.268Z,8972
2016-09-15T14:49:14.379Z,9004
2016-09-15T14:50:15.024Z,9068
2016-09-15T14:51:14.096Z,9084
2016-09-15T14:52:15.120Z,9048
2016-09-15T14:53:15.308Z,9028
2016-09-15T14:54:14.097Z,9016
2016-09-15T14:55:15.661Z,8956
2016-09-15T14:56:13.843Z,8908
2016-09-15T14:57:14.739Z,8860
2016-09-15T14:58:15.714Z,8860
2016-09-15T14:59:16.485Z,8876
2016-09-15T15:00:13.893Z,8892
2016-09-15T15:01:14.687Z,8364
2016-09-15T15:02:14.343Z,6568
2016-09-15T15:03:15.246Z,6144
2016-09-15T15:04:15.117Z,6176
2016-09-15T15:05:16.099Z,8316
2016-09-15T15:06:14.250Z,8272
2016-09-15T15:07:15.661Z,8288
2016-09-15T15:08:16.091Z,8280
2016-09-15T15:09:14.091Z,8232
2016-09-15T15:10:15.061Z,8204
2016-09-15T15:11:14.954Z,8160
2016-09-15T15:12:16.118Z,8108
2016-09-15T15:13:14.905Z,8092
2016-09-15T15:14:15.090Z,8032
2016-09-15T15:15:14.987Z,8064
2016-09-15T15:16:14.898Z,7896
2016-09-15T15:17:15.416Z,7764
2016-09-15T15:18:16.815Z,7564
2016-09-15T15:19:14.773Z,7720
2016-09-15T15:20:15.832Z,7724
2016-09-15T15:21:15.797Z,7740
2016-09-15T15:22:16.518Z,7884
2016-09-15T15:23:15.612Z,7776
2016-09-15T15:24:17.556Z,8492
2016-09-15T15:25:14.515Z,8972
2016-09-15T15:26:15.681Z,9148
2016-09-15T15:27:15.654Z,9196
2016-09-15T15:28:16.075Z,9176
2016-09-15T15:29:16.257Z,9088
2016-09-15T15:30:15.126Z,9100
2016-09-15T15:31:16.218Z,9116
2016-09-15T15:32:15.454Z,9060
2016-09-15T15:33:16.489Z,8996
2016-09-15T15:34:15.674Z,8968
2016-09-15T15:35:16.807Z,8872
2016-09-15T15:36:15.041Z,8752
2016-09-15T15:37:15.326Z,8732
2016-09-15T15:38:16.130Z,8716
2016-09-15T15:39:16.961Z,8652
2016-09-15T15:40:16.784Z,8512
2016-09-15T15:41:16.738Z,8424
2016-09-15T15:42:16.871Z,8448
2016-09-15T15:43:17.071Z,8460
2016-09-15T15:44:16.595Z,8384
2016-09-15T15:45:15.471Z,8356
2016-09-15T15:46:16.858Z,8352
2016-09-15T15:47:17.442Z,8360
2016-09-15T15:48:16.562Z,8340
2016-09-15T15:49:16.845Z,8344
2016-09-15T15:50:19.032Z,8308
2016-09-15T15:51:17.129Z,8288
2016-09-15T15:52:18.374Z,8304
2016-09-15T15:53:16.045Z,8280
2016-09-15T15:54:17.312Z,8204
2016-09-15T15:55:15.103Z,8180
2016-09-15T15:56:16.187Z,8196
2016-09-15T15:57:15.631Z,8168
2016-09-15T15:58:17.222Z,8100
2016-09-15T15:59:17.056Z,8064
2016-09-15T16:00:16.013Z,8020
2016-09-15T16:01:18.244Z,7944
2016-09-15T16:02:16.423Z,7892
2016-09-15T16:03:17.621Z,7800
2016-09-15T16:04:17.432Z,7708
2016-09-15T16:05:15.887Z,7672
2016-09-15T16:06:17.504Z,7628
2016-09-15T16:07:16.904Z,7584
2016-09-15T16:08:17.660Z,7476
2016-09-15T16:09:47.784Z,7312
2016-09-15T16:10:47.651Z,7224
2016-09-15T16:11:47.264Z,7128
2016-09-15T16:12:47.559Z,7028
2016-09-15T16:13:47.599Z,6936
2016-09-15T16:14:47.758Z,6876
2016-09-15T16:15:48.410Z,6780
2016-09-15T16:16:47.238Z,6672
2016-09-15T16:17:47.627Z,6552
2016-09-15T16:18:47.532Z,6436
2016-09-15T16:19:48.341Z,6324
2016-09-15T16:20:47.518Z,6216
2016-09-15T16:21:47.728Z,6116
2016-09-15T16:22:46.931Z,6012
2016-09-15T16:23:48.675Z,5868
2016-09-15T16:24:47.750Z,5732
2016-09-15T16:25:49.534Z,5640
2016-09-15T16:26:47.300Z,5560
2016-09-15T16:27:47.510Z,5488
2016-09-15T16:28:47.670Z,5384
2016-09-15T16:29:47.864Z,5284
2016-09-15T16:30:47.568Z,5164
2016-09-15T16:31:47.468Z,5056
2016-09-15T16:32:49.750Z,4940
2016-09-15T16:33:47.742Z,4820
2016-09-15T16:34:47.783Z,4720
2016-09-15T16:35:49.753Z,4592
2016-09-15T16:36:47.252Z,4472
2016-09-15T16:37:47.612Z,4384
2016-09-15T16:38:48.156Z,4320
2016-09-15T16:39:47.933Z,4272
2016-09-15T16:40:48.695Z,4240
2016-09-15T16:41:47.696Z,4208
2016-09-15T16:42:47.950Z,4172
2016-09-15T16:43:48.584Z,4136
2016-09-15T16:44:49.001Z,4096
2016-09-15T16:45:49.177Z,4056
2016-09-15T16:46:48.061Z,4016
2016-09-15T16:47:50.406Z,3968
2016-09-15T16:48:49.291Z,3920
2016-09-15T16:49:48.406Z,3860
2016-09-15T16:50:48.616Z,3780
2016-09-15T16:51:49.378Z,3696
2016-09-15T16:52:48.210Z,3624
2016-09-15T16:53:48.104Z,3564
2016-09-15T16:54:49.587Z,3516
2016-09-15T16:55:49.381Z,3472
2016-09-15T16:56:49.828Z,3416
2016-09-15T16:57:48.190Z,3344
2016-09-15T16:58:48.348Z,3252
2016-09-15T16:59:48.155Z,3140
2016-09-15T17:00:49.044Z,3020
2016-09-15T17:01:47.906Z,2912
2016-09-15T17:02:48.080Z,2828
2016-09-15T17:03:49.054Z,2756
2016-09-15T17:04:49.886Z,2692
2016-09-15T17:05:47.333Z,2624
2016-09-15T17:06:49.137Z,2536
2016-09-15T17:07:48.411Z,2432
2016-09-15T17:08:50.481Z,2300
2016-09-15T17:09:49.447Z,2160
2016-09-15T17:10:48.012Z,2040
2016-09-15T17:11:50.812Z,1920
2016-09-15T17:12:50.970Z,1804
2016-09-15T17:13:49.555Z,1700
2016-09-15T17:14:49.508Z,1592
2016-09-15T17:15:49.713Z,1496
2016-09-15T17:16:49.351Z,1408
2016-09-15T17:17:49.419Z,1324
2016-09-15T17:18:49.753Z,1248
2016-09-15T17:19:49.531Z,1172
2016-09-15T17:20:50.556Z,1100
2016-09-15T17:21:50.860Z,1032
2016-09-15T17:22:48.694Z,964
2016-09-15T17:23:50.130Z,900
2016-09-15T17:24:51.537Z,836
2016-09-15T17:25:48.753Z,772
2016-09-15T17:26:49.386Z,704
2016-09-15T17:27:49.629Z,640
2016-09-15T17:28:50.811Z,576
2016-09-15T17:29:50.227Z,520
2016-09-15T17:30:50.415Z,468
2016-09-15T17:31:49.296Z,424
2016-09-15T17:32:49.803Z,384
2016-09-15T17:33:50.909Z,344
2016-09-15T17:34:50.171Z,312
2016-09-15T17:35:49.777Z,280
2016-09-15T17:36:49.709Z,260
2016-09-15T17:37:50.107Z,236
2016-09-15T17:38:55.253Z,216
2016-09-15T17:39:50.687Z,204
2016-09-15T17:40:50.074Z,188
2016-09-15T17:41:51.003Z,176
2016-09-15T17:42:50.767Z,164
2016-09-15T17:43:49.813Z,156
2016-09-15T17:44:52.614Z,148
2016-09-15T17:45:50.202Z,136
2016-09-15T17:46:50.208Z,120
2016-09-15T17:47:50.259Z,100
2016-09-15T17:48:51.017Z,80
2016-09-15T17:49:50.596Z,64
2016-09-15T17:50:49.429Z,56
2016-09-15T17:51:51.926Z,44
2016-09-15T17:52:49.540Z,36
2016-09-15T17:53:52.224Z,32
2016-09-15T17:54:50.903Z,28
2016-09-15T17:55:53.671Z,24
2016-09-15T17:56:51.004Z,20
2016-09-15T17:57:50.752Z,16
2016-09-15T17:58:52.479Z,12
2016-09-15T17:59:52.319Z,12
2016-09-15T18:00:51.204Z,8
2016-09-15T18:01:50.502Z,8
2016-09-15T18:02:49.855Z,8
2016-09-15T18:03:55.031Z,4
2016-09-15T18:04:50.434Z,4
2016-09-15T18:05:51.613Z,4
2016-09-15T18:06:50.807Z,4
2016-09-15T18:07:52.724Z,4
2016-09-15T18:08:50.970Z,0
2016-09-15T18:09:51.857Z,4
2016-09-15T18:10:49.571Z,0
2016-09-15T18:11:50.986Z,0
2016-09-15T18:12:51.003Z,0
2016-09-15T18:13:50.579Z,0
2016-09-15T18:14:50.543Z,0
2016-09-15T18:15:50.510Z,0
2016-09-15T18:16:49.533Z,0
2016-09-15T18:17:50.155Z,0
2016-09-15T18:18:51.094Z,0
2016-09-15T18:19:50.071Z,0
2016-09-15T18:20:51.357Z,0
2016-09-15T18:21:52.066Z,0
2016-09-15T18:22:49.682Z,0
2016-09-15T18:23:51.008Z,0
2016-09-15T18:24:51.217Z,0
2016-09-15T18:25:51.045Z,0
2016-09-15T18:26:50.698Z,0
2016-09-15T18:27:48.466Z,0
2016-09-15T18:28:50.581Z,0
2016-09-15T18:29:50.880Z,0
2016-09-15T18:30:51.075Z,0
2016-09-15T18:31:52.737Z,0
2016-09-15T18:32:51.132Z,0
2016-09-15T18:33:50.203Z,0
2016-09-15T18:34:52.816Z,0
2016-09-15T18:35:50.480Z,0
2016-09-15T18:36:50.694Z,0
2016-09-15T18:37:51.711Z,0
2016-09-15T18:38:50.796Z,0
2016-09-15T18:39:51.174Z,0
2016-09-15T18:40:52.099Z,0
2016-09-15T18:41:52.957Z,0
2016-09-15T18:42:50.745Z,0
2016-09-15T18:43:51.167Z,0
2016-09-15T18:44:51.229Z,0
2016-09-15T18:45:51.183Z,0
2016-09-15T18:46:52.664Z,0
2016-09-15T18:47:51.603Z,0
2016-09-15T18:48:50.944Z,0
2016-09-15T18:49:51.838Z,0
2016-09-15T18:50:53.039Z,0
2016-09-15T18:51:52.792Z,0
2016-09-15T18:52:50.912Z,0
2016-09-15T18:53:51.531Z,0
2016-09-15T18:54:51.411Z,0
2016-09-15T18:55:51.330Z,0
2016-09-15T18:56:51.808Z,0
2016-09-15T18:57:52.873Z,0
2016-09-15T18:58:51.324Z,0
2016-09-15T18:59:52.403Z,0
2016-09-15T19:00:52.291Z,0
2016-09-15T19:01:53.041Z,0
2016-09-15T19:02:53.043Z,0
2016-09-15T19:03:51.952Z,0
2016-09-15T19:04:53.068Z,0
2016-09-15T19:05:51.367Z,0
2016-09-15T19:06:52.618Z,0
2016-09-15T19:08:50.996Z,0
2016-09-15T19:09:53.205Z,0
2016-09-15T19:10:52.904Z,0
2016-09-15T19:11:50.570Z,0
2016-09-15T19:12:52.725Z,0
2016-09-15T19:13:52.940Z,0
2016-09-15T19:14:52.742Z,0
2016-09-15T19:15:51.815Z,0
2016-09-15T19:16:53.483Z,0
2016-09-15T19:17:53.698Z,0
2016-09-15T19:18:52.878Z,0
2016-09-15T19:19:51.957Z,0
2016-09-15T19:20:52.540Z,0
2016-09-15T19:21:51.861Z,0
2016-09-15T19:22:53.008Z,0
2016-09-15T19:23:53.069Z,0
2016-09-15T19:24:51.613Z,0
2016-09-15T19:25:51.822Z,0
2016-09-15T19:26:52.600Z,0
2016-09-15T19:27:52.191Z,0
2016-09-15T19:28:52.561Z,0
2016-09-15T19:29:53.876Z,0
2016-09-15T19:30:51.547Z,0
2016-09-15T19:31:52.967Z,0
2016-09-15T19:32:52.357Z,0
2016-09-15T19:33:53.883Z,0
2016-09-15T19:34:53.068Z,0
2016-09-15T19:35:53.739Z,0
2016-09-15T19:36:53.155Z,0
2016-09-15T19:37:53.348Z,0
2016-09-15T19:38:53.712Z,0
2016-09-15T19:39:51.819Z,0
2016-09-15T19:40:52.067Z,0
2016-09-15T19:41:53.639Z,0
2016-09-15T19:42:53.549Z,0
2016-09-15T19:43:52.887Z,0
2016-09-15T19:44:52.491Z,0
2016-09-15T19:45:53.791Z,0
2016-09-15T19:46:53.686Z,0
2016-09-15T19:47:52.063Z,0
2016-09-15T19:48:51.637Z,0
2016-09-15T19:49:51.692Z,0
2016-09-15T19:50:51.935Z,0
2016-09-15T19:51:53.517Z,0
2016-09-15T19:52:53.388Z,0
2016-09-15T19:53:54.063Z,0
2016-09-15T19:54:56.114Z,0
2016-09-15T19:55:54.190Z,0
2016-09-15T19:56:53.039Z,0
2016-09-15T19:57:54.284Z,0
2016-09-15T19:58:54.436Z,0
2016-09-15T19:59:53.861Z,0
2016-09-15T20:00:53.782Z,0
2016-09-15T20:01:52.972Z,0